Terminal Aerodrome Forecast
Issued by NWS

Home | Current Version | Previous Version | Text Only | Print | Product List | Glossary On
Versions: 1 2 3 4 5 6 7 8 9 10 11 12 13 14 15
000
FTUS42 KTBW 312343
TAFLAL
TAF
KLAL 312343Z 0100/0124 10005KT P6SM -RA VCTS SCT025 BKN035CB BKN100
     FM010300 VRB03KT P6SM SCT035 BKN250
     FM011500 19006KT P6SM SCT025 SCT100 BKN250
     FM011800 20007KT P6SM VCTS BKN035CB BKN060
      AMD NOT SKED 0103/0112=

USA.gov is the U.S. government's official web portal to all federal, state and local government web resources and services.